Time;durP1;ratioP1;P1;durP2;ratioP2;P2;SDS_P1;SDS_P2;PMS_P1;PMS_P2;Temp;Humidity;BMP_temperature;BMP_pressure;BME280_temperature;BME280_humidity;BME280_pressure;Samples;Min_cycle;Max_cycle;Signal;HPM_P1;HPM_P2
2022/11/23 00:01:16;;;;;;;11.18;8.70;;;;;;;9.96;100.00;99081.00;4989471;28;20038;-71
2022/11/23 00:03:43;;;;;;;11.45;8.65;;;;;;;10.15;100.00;99090.41;4991814;28;20036;-71
2022/11/23 00:06:08;;;;;;;10.63;8.57;;;;;;;9.92;100.00;99054.09;5007420;28;20117;-71
2022/11/23 00:08:35;;;;;;;13.30;9.23;;;;;;;10.36;100.00;99130.16;4992418;28;20473;-71
2022/11/23 00:11:00;;;;;;;12.75;9.10;;;;;;;10.39;100.00;99124.97;4992315;28;20034;-71
2022/11/23 00:13:26;;;;;;;12.38;8.70;;;;;;;10.39;100.00;99102.09;4992141;28;20057;-71
2022/11/23 00:15:51;;;;;;;12.35;8.50;;;;;;;10.10;100.00;99066.09;4992352;28;20022;-71
2022/11/23 00:18:17;;;;;;;11.35;8.30;;;;;;;10.16;100.00;99102.19;4990931;28;20038;-71
2022/11/23 00:20:42;;;;;;;9.65;7.65;;;;;;;9.90;100.00;99054.16;5000705;28;20033;-71
2022/11/23 00:23:08;;;;;;;10.32;7.65;;;;;;;10.21;100.00;99102.00;5011327;28;20029;-71
2022/11/23 00:25:33;;;;;;;10.65;8.43;;;;;;;10.12;100.00;99100.66;5010049;28;20061;-72
2022/11/23 00:27:59;;;;;;;10.00;8.10;;;;;;;10.22;100.00;99106.22;5010836;28;20466;-70
2022/11/23 00:30:24;;;;;;;9.70;8.35;;;;;;;9.80;100.00;99031.75;5011867;28;20172;-70
2022/11/23 00:32:49;;;;;;;10.65;8.43;;;;;;;9.95;100.00;99054.78;5009606;28;20038;-69
2022/11/23 00:35:15;;;;;;;15.07;8.20;;;;;;;9.92;100.00;99047.31;5009524;28;20127;-70
2022/11/23 00:37:40;;;;;;;10.68;8.43;;;;;;;10.01;100.00;99057.09;5010091;28;20030;-70
2022/11/23 00:40:06;;;;;;;11.35;7.85;;;;;;;10.25;100.00;99071.34;5009632;28;20064;-70
2022/11/23 00:42:32;;;;;;;11.82;8.30;;;;;;;10.25;100.00;99068.81;5011211;28;20116;-71
2022/11/23 00:44:57;;;;;;;11.48;8.68;;;;;;;10.27;100.00;99072.13;5011059;28;20430;-71
2022/11/23 00:47:22;;;;;;;13.40;8.05;;;;;;;10.08;100.00;99030.53;5009814;28;20026;-70
2022/11/23 00:49:48;;;;;;;11.13;7.80;;;;;;;10.02;100.00;99025.72;5010626;28;20543;-70
2022/11/23 00:52:13;;;;;;;12.07;8.35;;;;;;;10.22;100.00;99056.22;5010602;28;20451;-70
2022/11/23 00:54:39;;;;;;;10.35;8.02;;;;;;;10.19;100.00;99048.75;5011091;28;20684;-70
2022/11/23 00:57:04;;;;;;;10.30;8.93;;;;;;;9.98;100.00;99005.63;5010000;28;20091;-70
2022/11/23 00:59:30;;;;;;;10.93;8.80;;;;;;;9.61;100.00;98958.88;5011101;28;20033;-72
2022/11/23 01:01:55;;;;;;;10.45;8.15;;;;;;;9.80;100.00;98983.53;5009685;28;20026;-70
2022/11/23 01:04:21;;;;;;;11.93;8.32;;;;;;;9.86;100.00;98996.78;5009524;28;20180;-71
2022/11/23 01:06:46;;;;;;;12.07;8.38;;;;;;;9.75;100.00;98971.00;5010579;28;20064;-70
2022/11/23 01:09:16;;;;;;;10.27;8.77;;;;;;;9.71;100.00;98968.66;5010724;28;20087;-71
2022/11/23 01:11:42;;;;;;;12.07;8.40;;;;;;;10.04;100.00;99006.16;5009719;28;20067;-71
2022/11/23 01:14:08;;;;;;;15.75;9.23;;;;;;;9.85;100.00;98959.59;5011774;28;20507;-71
2022/11/23 01:16:36;;;;;;;11.77;8.40;;;;;;;10.17;100.00;99004.81;5009900;28;20033;-72
2022/11/23 01:19:15;;;;;;;13.10;8.93;;;;;;;10.14;100.00;98994.78;5009497;28;20084;-71
2022/11/23 01:21:40;;;;;;;12.23;8.50;;;;;;;9.96;100.00;98941.38;5010816;28;20509;-71
2022/11/23 01:24:18;;;;;;;14.40;9.00;;;;;;;9.93;100.00;98960.09;5010588;28;20104;-71
2022/11/23 01:26:43;;;;;;;11.98;9.13;;;;;;;9.63;100.00;98928.38;5009293;28;20037;-71
2022/11/23 01:29:10;;;;;;;16.17;9.48;;;;;;;10.14;100.00;99004.94;5011013;28;20030;-71
2022/11/23 01:31:36;;;;;;;11.65;9.23;;;;;;;9.83;100.00;98961.38;5011110;28;20398;-72
2022/11/23 01:34:02;;;;;;;11.82;9.10;;;;;;;10.03;100.00;98994.38;5009172;28;20041;-71
2022/11/23 01:36:31;;;;;;;12.93;9.75;;;;;;;10.24;100.00;98987.63;5008972;28;20036;-71
2022/11/23 01:38:57;;;;;;;13.20;9.98;;;;;;;10.04;100.00;98980.78;5010466;28;20503;-70
2022/11/23 01:41:26;;;;;;;17.95;10.07;;;;;;;10.14;100.00;98987.16;5009143;28;20120;-70
2022/11/23 01:43:53;;;;;;;14.65;10.05;;;;;;;10.05;100.00;98979.06;5010554;28;20045;-71
2022/11/23 01:46:19;;;;;;;15.00;10.38;;;;;;;10.10;100.00;98988.16;5012397;28;20128;-71
2022/11/23 01:49:02;;;;;;;16.48;10.35;;;;;;;10.00;100.00;98948.00;5014338;28;20041;-71
2022/11/23 01:51:30;;;;;;;15.50;9.82;;;;;;;10.19;100.00;98985.25;5014141;28;20025;-70
2022/11/23 01:54:10;;;;;;;17.13;10.63;;;;;;;10.15;100.00;98962.59;5014256;28;20048;-70
2022/11/23 01:56:40;;;;;;;15.73;10.75;;;;;;;10.14;100.00;98956.69;5013930;28;20030;-72
2022/11/23 01:59:10;;;;;;;14.82;10.27;;;;;;;10.12;100.00;98958.47;5013834;28;20030;-71
2022/11/23 02:01:35;;;;;;;18.35;10.95;;;;;;;9.82;100.00;98910.69;5014422;28;20108;-71
2022/11/23 02:04:01;;;;;;;14.23;10.15;;;;;;;10.04;100.00;98947.78;5013414;28;20068;-71
2022/11/23 02:06:28;;;;;;;15.75;10.90;;;;;;;10.02;100.00;98947.00;5012751;28;20048;-71
2022/11/23 02:08:55;;;;;;;16.65;10.77;;;;;;;9.69;100.00;98887.53;5013837;28;20022;-70
2022/11/23 02:11:20;;;;;;;18.05;10.25;;;;;;;9.72;100.00;98877.25;5014375;28;20068;-70
2022/11/23 02:13:49;;;;;;;16.75;10.38;;;;;;;10.02;100.00;98921.63;5013617;28;20026;-71
2022/11/23 02:16:15;;;;;;;16.92;10.70;;;;;;;9.78;100.00;98859.25;5012340;28;20025;-71
2022/11/23 02:18:44;;;;;;;16.20;10.00;;;;;;;9.83;100.00;98862.38;5012314;28;20033;-71
2022/11/23 02:21:10;;;;;;;17.10;9.63;;;;;;;10.12;100.00;98884.81;5013858;28;20030;-72
2022/11/23 02:24:11;;;;;;;13.25;9.40;;;;;;;10.24;100.00;98904.59;5014115;28;20091;-70
2022/11/23 02:26:37;;;;;;;13.45;9.60;;;;;;;10.14;100.00;98877.97;4936975;29;20502;-70
2022/11/23 02:29:08;;;;;;;14.13;9.43;;;;;;;10.19;100.00;98898.09;5000731;28;20076;-70
2022/11/23 02:31:34;;;;;;;14.38;9.98;;;;;;;9.90;100.00;98862.97;5013545;28;20049;-70
2022/11/23 02:34:00;;;;;;;15.23;9.77;;;;;;;9.92;100.00;98858.63;5012352;28;20041;-72
2022/11/23 02:36:40;;;;;;;16.13;9.82;;;;;;;10.09;100.00;98882.41;5013443;28;20493;-71
2022/11/23 02:39:11;;;;;;;15.55;9.50;;;;;;;10.18;100.00;98901.53;5013946;28;20046;-75
2022/11/23 02:41:40;;;;;;;14.65;10.00;;;;;;;10.20;100.00;98904.81;5012629;28;20404;-71
2022/11/23 02:44:13;;;;;;;13.15;9.73;;;;;;;10.29;100.00;98906.94;4997488;28;20039;-77
2022/11/23 02:46:38;;;;;;;14.32;9.98;;;;;;;10.18;100.00;98896.44;4994500;28;20030;-75
2022/11/23 02:49:03;;;;;;;13.00;9.75;;;;;;;10.16;100.00;98872.84;4995170;28;20091;-75
2022/11/23 02:51:29;;;;;;;14.32;10.30;;;;;;;10.14;100.00;98890.66;4994387;28;20066;-72
2022/11/23 02:53:55;;;;;;;14.75;10.35;;;;;;;9.79;100.00;98804.22;4995819;28;20045;-74
2022/11/23 02:56:20;;;;;;;18.17;10.43;;;;;;;9.97;100.00;98838.94;5001666;28;20235;-72
2022/11/23 02:58:45;;;;;;;15.90;10.10;;;;;;;10.24;100.00;98873.31;5013478;28;20029;-71
2022/11/23 03:01:11;;;;;;;14.38;10.40;;;;;;;10.13;100.00;98865.34;5012349;28;20026;-72
2022/11/23 03:03:36;;;;;;;14.88;9.90;;;;;;;9.93;100.00;98823.03;5013679;28;20025;-72
2022/11/23 03:06:02;;;;;;;14.70;10.30;;;;;;;10.02;100.00;98820.06;5011072;28;20390;-71
2022/11/23 03:08:27;;;;;;;16.55;10.02;;;;;;;10.19;100.00;98852.38;5012538;28;20030;-74
2022/11/23 03:10:52;;;;;;;17.30;10.02;;;;;;;10.21;100.00;98840.44;5013097;28;20038;-72
2022/11/23 03:13:18;;;;;;;14.43;9.15;;;;;;;10.18;100.00;98845.66;5012633;28;20026;-72
2022/11/23 03:15:45;;;;;;;13.55;8.80;;;;;;;9.78;100.00;98774.66;5013022;28;20056;-72
2022/11/23 03:18:10;;;;;;;15.02;9.95;;;;;;;9.81;100.00;98771.97;5013398;28;20026;-73
2022/11/23 03:20:35;;;;;;;12.48;9.02;;;;;;;10.29;100.00;98834.13;5012957;28;20413;-71
2022/11/23 03:23:01;;;;;;;15.20;9.80;;;;;;;10.43;100.00;98857.19;5012847;28;20108;-72
2022/11/23 03:25:26;;;;;;;12.95;9.18;;;;;;;10.33;100.00;98850.88;5004461;28;20042;-70
2022/11/23 03:27:52;;;;;;;13.90;9.07;;;;;;;10.42;100.00;98850.44;5012205;28;20061;-71
2022/11/23 03:30:17;;;;;;;14.50;9.27;;;;;;;10.45;100.00;98849.50;5010542;28;20058;-71
2022/11/23 03:32:43;;;;;;;14.25;8.93;;;;;;;10.18;100.00;98798.22;4992706;28;20077;-70
2022/11/23 03:35:08;;;;;;;13.48;8.38;;;;;;;10.18;100.00;98795.66;4992516;28;20070;-71
2022/11/23 03:37:34;;;;;;;13.43;8.23;;;;;;;10.35;100.00;98833.00;5008247;28;20030;-70
2022/11/23 03:39:59;;;;;;;14.68;8.93;;;;;;;9.94;100.00;98748.53;5012014;28;20053;-71
2022/11/23 03:42:24;;;;;;;14.48;8.70;;;;;;;10.50;100.00;98855.16;5003651;28;20037;-71
2022/11/23 03:44:50;;;;;;;14.65;8.82;;;;;;;10.20;100.00;98788.81;5012079;28;20048;-73
2022/11/23 03:47:15;;;;;;;11.18;8.32;;;;;;;10.45;100.00;98835.06;5010361;28;20030;-71
2022/11/23 03:49:41;;;;;;;12.00;8.80;;;;;;;10.48;100.00;98834.91;4991514;28;20058;-71
2022/11/23 03:52:06;;;;;;;14.30;8.70;;;;;;;10.37;100.00;98818.53;4992461;28;20038;-71
2022/11/23 03:54:32;;;;;;;14.90;8.90;;;;;;;10.54;100.00;98840.63;4992966;28;20034;-70
2022/11/23 03:56:57;;;;;;;14.45;9.35;;;;;;;10.59;100.00;98846.31;4991192;28;20088;-71
2022/11/23 03:59:23;;;;;;;13.00;8.73;;;;;;;10.20;100.00;98788.81;4992684;28;20036;-72
2022/11/23 04:01:48;;;;;;;13.70;8.30;;;;;;;10.66;100.00;98832.41;4991593;28;20120;-71
2022/11/23 04:04:13;;;;;;;13.32;8.60;;;;;;;10.86;100.00;98824.66;4992799;28;20110;-71
2022/11/23 04:06:39;;;;;;;14.43;8.48;;;;;;;10.32;100.00;98780.63;4992665;28;20065;-74
2022/11/23 04:09:04;;;;;;;15.88;8.40;;;;;;;10.63;100.00;98820.69;4990929;28;20125;-70
2022/11/23 04:11:30;;;;;;;15.98;8.63;;;;;;;10.39;100.00;98789.63;4991764;28;20120;-70
2022/11/23 04:13:55;;;;;;;13.88;9.05;;;;;;;10.50;100.00;98803.56;4991859;28;20046;-72
2022/11/23 04:16:20;;;;;;;13.00;8.75;;;;;;;10.12;100.00;98747.69;4990316;28;20128;-71
2022/11/23 04:18:46;;;;;;;13.65;8.65;;;;;;;10.28;100.00;98781.66;5000817;28;20520;-70
2022/11/23 04:21:11;;;;;;;13.25;8.23;;;;;;;10.57;100.00;98822.69;5011076;28;20031;-71
2022/11/23 04:23:37;;;;;;;14.77;8.88;;;;;;;10.27;100.00;98782.56;5011136;28;20030;-71
2022/11/23 04:26:02;;;;;;;12.35;8.98;;;;;;;10.44;100.00;98797.84;5009968;28;20029;-70
2022/11/23 04:28:28;;;;;;;14.80;8.15;;;;;;;10.40;100.00;98785.34;5009803;28;20057;-71
2022/11/23 04:30:53;;;;;;;16.15;8.40;;;;;;;10.32;100.00;98775.53;5007100;28;20113;-71
2022/11/23 04:33:19;;;;;;;16.05;8.48;;;;;;;10.60;100.00;98812.41;4998686;28;20387;-71
2022/11/23 04:35:44;;;;;;;16.00;8.77;;;;;;;10.35;100.00;98779.66;4990910;28;20042;-70
2022/11/23 04:38:10;;;;;;;18.13;8.70;;;;;;;10.56;100.00;98804.06;5002069;28;20071;-71
2022/11/23 04:40:35;;;;;;;18.52;10.27;;;;;;;10.56;100.00;98806.59;4994586;28;20072;-71
2022/11/23 04:43:05;;;;;;;15.05;8.77;;;;;;;10.14;100.00;98732.41;5009963;28;20041;-71
2022/11/23 04:45:30;;;;;;;17.00;10.00;;;;;;;10.41;100.00;98782.75;5010605;28;20038;-71
2022/11/23 04:47:56;;;;;;;17.80;9.45;;;;;;;10.10;100.00;98739.34;5010491;28;20045;-71
2022/11/23 04:50:21;;;;;;;15.93;9.23;;;;;;;10.17;100.00;98717.03;5009448;28;20773;-71
2022/11/23 04:52:46;;;;;;;14.90;8.82;;;;;;;10.65;100.00;98816.34;4997905;28;20050;-70
2022/11/23 04:55:12;;;;;;;13.25;8.80;;;;;;;10.37;100.00;98760.94;5009792;28;20034;-70
2022/11/23 04:57:37;;;;;;;13.63;9.13;;;;;;;10.63;100.00;98807.16;5009753;28;20029;-70
2022/11/23 05:00:03;;;;;;;15.95;8.80;;;;;;;10.63;100.00;98792.72;5010424;28;20382;-70
2022/11/23 05:02:29;;;;;;;15.07;9.80;;;;;;;10.43;100.00;98770.81;5010302;28;20038;-70
2022/11/23 05:04:54;;;;;;;19.13;10.90;;;;;;;10.32;100.00;98742.53;5009493;28;20041;-70
2022/11/23 05:07:20;;;;;;;16.77;10.73;;;;;;;10.37;100.00;98755.84;5010569;28;20044;-71
2022/11/23 05:09:45;;;;;;;15.98;9.90;;;;;;;10.60;100.00;98782.69;5010064;28;20476;-70
2022/11/23 05:12:11;;;;;;;14.75;8.90;;;;;;;10.16;100.00;98713.66;5009067;28;20042;-69
2022/11/23 05:14:36;;;;;;;18.20;9.27;;;;;;;10.63;100.00;98785.13;5008536;28;20040;-68
2022/11/23 05:17:01;;;;;;;17.98;9.10;;;;;;;10.70;100.00;98793.25;5008922;28;20137;-70
2022/11/23 05:19:27;;;;;;;16.17;9.35;;;;;;;10.74;100.00;98798.13;5008142;28;20126;-69
2022/11/23 05:21:52;;;;;;;16.58;9.25;;;;;;;10.75;100.00;98781.16;5010044;28;20116;-71
2022/11/23 05:24:17;;;;;;;14.15;9.18;;;;;;;10.23;100.00;98704.88;5005849;28;20434;-70
2022/11/23 05:26:43;;;;;;;14.65;9.00;;;;;;;10.48;100.00;98738.38;5010174;28;20200;-69
2022/11/23 05:29:08;;;;;;;16.90;8.80;;;;;;;10.73;100.00;98781.25;5009893;28;20442;-70
2022/11/23 05:31:36;;;;;;;13.98;8.77;;;;;;;10.75;100.00;98781.16;5009575;28;20124;-70
2022/11/23 05:34:03;;;;;;;12.77;8.55;;;;;;;10.33;100.00;98718.78;5010160;28;20036;-71
2022/11/23 05:36:28;;;;;;;21.65;12.82;;;;;;;10.77;100.00;98779.38;5008635;28;20033;-73
2022/11/23 05:38:54;;;;;;;14.52;9.93;;;;;;;10.54;100.00;98737.25;5007691;28;20083;-71
2022/11/23 05:41:19;;;;;;;17.85;9.40;;;;;;;10.84;100.00;98795.94;5008917;28;20120;-71
2022/11/23 05:43:45;;;;;;;14.65;9.05;;;;;;;10.80;100.00;98772.41;5000890;28;20062;-69
2022/11/23 05:46:10;;;;;;;18.75;8.77;;;;;;;10.85;100.00;98769.66;5005843;28;20030;-71
2022/11/23 05:48:35;;;;;;;15.57;9.00;;;;;;;10.80;100.00;98758.88;5008778;28;20456;-69
2022/11/23 05:51:01;;;;;;;13.77;8.75;;;;;;;10.92;100.00;98789.63;5010055;28;20088;-70
2022/11/23 05:53:26;;;;;;;14.30;8.93;;;;;;;10.97;100.00;98784.31;5009791;28;20480;-70
2022/11/23 05:55:52;;;;;;;16.98;9.02;;;;;;;10.81;100.00;98741.03;5009162;28;20129;-70
2022/11/23 05:58:17;;;;;;;16.20;10.02;;;;;;;11.02;100.00;98767.94;5006976;28;20033;-68
2022/11/23 06:00:43;;;;;;;17.08;9.80;;;;;;;10.88;100.00;98737.28;5007511;28;20069;-69
2022/11/23 06:03:08;;;;;;;15.88;10.05;;;;;;;11.20;100.00;98784.00;5009643;28;20140;-69
2022/11/23 06:05:34;;;;;;;22.42;12.23;;;;;;;11.21;100.00;98789.00;5009070;28;20030;-70
2022/11/23 06:07:59;;;;;;;22.02;11.63;;;;;;;10.73;100.00;98704.16;5008854;28;20029;-69
2022/11/23 06:10:25;;;;;;;16.83;11.07;;;;;;;11.30;100.00;98785.19;5007673;28;20034;-69
2022/11/23 06:12:51;;;;;;;18.13;11.80;;;;;;;11.26;100.00;98791.31;5009927;28;20045;-69
2022/11/23 06:15:17;;;;;;;19.70;11.82;;;;;;;11.20;100.00;98777.19;5008037;28;20084;-69
2022/11/23 06:17:43;;;;;;;22.55;13.52;;;;;;;11.18;100.00;98770.53;5007901;28;20044;-69
2022/11/23 06:20:08;;;;;;;17.85;11.75;;;;;;;11.26;100.00;98781.97;5007945;28;20424;-69
2022/11/23 06:22:34;;;;;;;22.17;11.32;;;;;;;11.08;100.00;98739.66;5008657;28;20093;-70
2022/11/23 06:24:59;;;;;;;18.38;11.10;;;;;;;10.88;100.00;98690.69;5009867;28;20121;-70
2022/11/23 06:27:25;;;;;;;17.95;10.85;;;;;;;11.34;100.00;98748.50;5009699;28;20036;-69
2022/11/23 06:29:51;;;;;;;17.60;10.20;;;;;;;11.38;100.00;98744.09;5009153;28;20033;-69
2022/11/23 06:32:16;;;;;;;18.23;11.05;;;;;;;11.40;100.00;98755.84;5011376;28;20533;-69
2022/11/23 06:34:42;;;;;;;16.48;10.25;;;;;;;11.28;100.00;98716.56;5011499;28;20034;-69
2022/11/23 06:37:07;;;;;;;18.83;11.65;;;;;;;11.24;100.00;98706.63;5012343;28;20032;-69
2022/11/23 06:39:32;;;;;;;17.73;11.15;;;;;;;11.52;100.00;98750.13;5012400;28;20058;-70
2022/11/23 06:41:58;;;;;;;21.52;11.98;;;;;;;11.33;100.00;98701.06;5012475;28;20482;-70
2022/11/23 06:44:23;;;;;;;20.88;12.48;;;;;;;11.39;100.00;98710.91;5012633;28;20120;-69
2022/11/23 06:46:49;;;;;;;20.17;12.30;;;;;;;11.39;100.00;98707.56;5011699;28;20442;-69
2022/11/23 06:49:16;;;;;;;17.67;12.18;;;;;;;11.70;100.00;98768.75;5012335;28;20038;-69
2022/11/23 06:51:41;;;;;;;20.10;11.73;;;;;;;11.72;100.00;98787.28;5011510;28;20505;-69
2022/11/23 06:54:08;;;;;;;18.50;11.57;;;;;;;11.72;100.00;98783.03;5012101;28;20088;-69
2022/11/23 06:56:33;;;;;;;21.08;12.18;;;;;;;11.67;100.00;98764.63;5027483;28;20140;-69
2022/11/23 06:58:59;;;;;;;21.52;11.70;;;;;;;11.49;100.00;98740.09;5010881;28;20566;-69
2022/11/23 07:01:24;;;;;;;20.80;12.77;;;;;;;11.76;100.00;98781.16;5012654;28;20564;-68
2022/11/23 07:03:49;;;;;;;22.52;13.57;;;;;;;11.61;100.00;98753.88;5012232;28;20034;-68
2022/11/23 07:06:15;;;;;;;22.77;13.27;;;;;;;11.74;100.00;98785.50;5012441;28;20116;-68
2022/11/23 07:08:42;;;;;;;25.08;14.68;;;;;;;11.60;100.00;98765.00;5012096;28;20117;-69
2022/11/23 07:11:10;;;;;;;20.75;14.60;;;;;;;11.86;100.00;98811.16;5012376;28;20022;-69
2022/11/23 07:13:36;;;;;;;19.95;13.93;;;;;;;11.85;100.00;98795.94;5010890;28;20034;-68
2022/11/23 07:16:01;;;;;;;22.95;14.07;;;;;;;11.85;100.00;98801.03;5012224;28;20029;-69
2022/11/23 07:18:26;;;;;;;23.40;13.52;;;;;;;11.93;100.00;98816.72;5012547;28;20038;-69
2022/11/23 07:20:52;;;;;;;22.00;13.68;;;;;;;11.89;100.00;98821.16;5012088;28;20072;-69
2022/11/23 07:23:17;;;;;;;25.60;14.57;;;;;;;11.72;100.00;98789.84;5011932;28;20042;-69
2022/11/23 07:25:43;;;;;;;19.30;13.93;;;;;;;11.93;100.00;98815.00;5010763;28;20034;-69
2022/11/23 07:28:10;;;;;;;25.45;14.93;;;;;;;11.92;100.00;98805.72;5010373;28;20025;-69
2022/11/23 07:30:36;;;;;;;18.70;13.68;;;;;;;11.93;100.00;98806.53;5011985;28;20032;-69
2022/11/23 07:33:03;;;;;;;21.50;14.35;;;;;;;11.73;100.00;98781.28;5010583;28;20034;-70
2022/11/23 07:35:30;;;;;;;21.38;14.57;;;;;;;12.05;100.00;98828.81;5012178;28;20038;-69
2022/11/23 07:37:56;;;;;;;19.15;14.43;;;;;;;12.08;100.00;98829.47;5011679;28;20550;-68
2022/11/23 07:40:21;;;;;;;22.52;14.43;;;;;;;12.14;100.00;98821.50;5011377;28;20149;-68
2022/11/23 07:42:46;;;;;;;23.65;14.00;;;;;;;11.91;100.00;98757.41;5011098;28;20038;-68
2022/11/23 07:45:12;;;;;;;24.88;14.32;;;;;;;12.26;100.00;98807.28;5011697;28;20022;-68
2022/11/23 07:47:38;;;;;;;28.98;14.95;;;;;;;12.06;100.00;98762.50;5011485;28;20034;-68
2022/11/23 07:50:08;;;;;;;23.63;13.10;;;;;;;12.18;100.00;98778.88;5010627;28;20037;-68
2022/11/23 07:52:35;;;;;;;22.42;13.43;;;;;;;12.21;100.00;98781.25;5011043;28;20045;-68
2022/11/23 07:55:01;;;;;;;22.15;15.38;;;;;;;12.41;100.00;98803.09;5011651;28;20111;-67
2022/11/23 07:57:27;;;;;;;27.10;15.32;;;;;;;12.42;100.00;98807.31;5026312;28;20116;-68
2022/11/23 07:59:52;;;;;;;24.90;16.08;;;;;;;12.53;100.00;98817.75;5011019;28;20022;-68
2022/11/23 08:02:18;;;;;;;25.92;17.08;;;;;;;12.39;100.00;98793.00;5009673;28;20030;-68
2022/11/23 08:04:43;;;;;;;25.25;15.15;;;;;;;12.52;100.00;98795.72;5011346;28;20030;-68
2022/11/23 08:07:09;;;;;;;24.23;16.92;;;;;;;12.33;100.00;98755.09;5011473;28;20021;-68
2022/11/23 08:09:35;;;;;;;25.17;15.50;;;;;;;12.37;100.00;98754.03;5011015;28;20228;-69
2022/11/23 08:12:00;;;;;;;21.15;15.95;;;;;;;12.37;100.00;98748.94;5010041;28;20124;-69
2022/11/23 08:14:26;;;;;;;25.02;15.68;;;;;;;12.71;100.00;98792.06;5011138;28;20026;-69
2022/11/23 08:16:51;;;;;;;26.98;17.42;;;;;;;12.47;100.00;98755.19;5011237;28;20034;-69
2022/11/23 08:19:17;;;;;;;21.10;15.45;;;;;;;12.64;100.00;98769.53;5010011;28;20499;-69
2022/11/23 08:21:44;;;;;;;21.20;16.35;;;;;;;12.83;100.00;98816.06;5010805;28;20034;-69
2022/11/23 08:24:09;;;;;;;26.25;18.73;;;;;;;12.56;100.00;98766.56;5011004;28;20029;-69
2022/11/23 08:26:35;;;;;;;23.20;17.40;;;;;;;12.65;100.00;98782.22;5010149;28;20104;-70
2022/11/23 08:29:00;;;;;;;20.83;14.98;;;;;;;12.89;100.00;98813.16;5011260;28;20033;-69
2022/11/23 08:31:26;;;;;;;20.60;16.50;;;;;;;12.90;100.00;98796.94;5011511;28;20059;-69
2022/11/23 08:33:51;;;;;;;25.58;16.80;;;;;;;12.97;100.00;98805.91;5011004;28;20045;-69
2022/11/23 08:36:17;;;;;;;22.90;15.07;;;;;;;12.79;100.00;98787.34;5025724;28;20034;-69
2022/11/23 08:38:42;;;;;;;20.85;13.45;;;;;;;12.97;100.00;98800.81;5010984;28;20050;-68
2022/11/23 08:41:08;;;;;;;22.23;14.65;;;;;;;12.95;100.00;98785.56;5009350;28;20030;-70
2022/11/23 08:43:34;;;;;;;21.80;14.13;;;;;;;12.91;100.00;98786.63;5011087;28;20033;-68
2022/11/23 08:46:00;;;;;;;22.90;15.30;;;;;;;13.11;100.00;98803.44;5010687;28;20061;-69
2022/11/23 08:48:26;;;;;;;24.48;16.90;;;;;;;12.72;100.00;98716.38;5009673;28;20034;-68
2022/11/23 08:50:52;;;;;;;22.85;14.40;;;;;;;13.22;100.00;98793.41;5009088;28;20175;-69
2022/11/23 08:53:17;;;;;;;20.05;12.82;;;;;;;13.16;100.00;98777.63;5010815;28;20034;-68
2022/11/23 08:55:43;;;;;;;19.42;11.45;;;;;;;13.05;100.00;98753.53;5010058;28;20549;-68
2022/11/23 08:58:09;;;;;;;21.45;13.32;;;;;;;13.14;100.00;98746.28;5010458;28;20512;-69
2022/11/23 09:00:35;;;;;;;24.20;13.48;;;;;;;13.36;100.00;98774.72;5010716;28;20064;-69
2022/11/23 09:03:00;;;;;;;23.63;13.80;;;;;;;13.15;100.00;98743.66;5010470;28;20026;-68
2022/11/23 09:05:27;;;;;;;23.40;12.60;;;;;;;13.35;100.00;98781.56;5010324;28;20393;-69
2022/11/23 09:07:53;;;;;;;19.00;13.25;;;;;;;13.11;100.00;98739.63;5009283;28;20038;-69
2022/11/23 09:10:19;;;;;;;17.80;11.38;;;;;;;13.35;100.00;98791.78;5010492;28;20485;-69
2022/11/23 09:12:44;;;;;;;17.70;12.18;;;;;;;13.16;100.00;98741.91;5009951;28;20112;-68
2022/11/23 09:15:10;;;;;;;22.92;13.68;;;;;;;13.37;100.00;98774.63;5010606;28;20033;-69
2022/11/23 09:17:36;;;;;;;39.70;25.67;;;;;;;13.45;100.00;98785.22;5010548;28;20034;-68
2022/11/23 09:20:01;;;;;;;31.55;21.17;;;;;;;13.32;100.00;98760.50;5010744;28;20040;-67
2022/11/23 09:22:27;;;;;;;47.53;29.20;;;;;;;13.26;100.00;98781.28;5010106;28;20058;-68
2022/11/23 09:24:53;;;;;;;40.58;28.52;;;;;;;13.45;100.00;98776.75;5010164;28;20124;-68
2022/11/23 09:27:18;;;;;;;36.83;24.95;;;;;;;13.51;100.00;98767.00;5010675;28;20113;-68
2022/11/23 09:29:44;;;;;;;44.95;30.35;;;;;;;13.53;100.00;98762.63;5010409;28;20088;-68
2022/11/23 09:32:09;;;;;;;37.83;26.25;;;;;;;13.53;100.00;98760.06;5009906;28;20038;-67
2022/11/23 09:34:35;;;;;;;37.90;27.58;;;;;;;13.13;100.00;98683.41;5008913;28;20501;-67
2022/11/23 09:37:00;;;;;;;31.50;23.45;;;;;;;13.47;100.00;98757.06;5008618;28;20053;-67
2022/11/23 09:39:26;;;;;;;30.15;23.58;;;;;;;13.59;100.00;98756.31;5009827;28;20042;-68
2022/11/23 09:42:08;;;;;;;23.30;19.00;;;;;;;13.61;100.00;98759.59;5009763;28;20436;-67
2022/11/23 09:44:52;;;;;;;20.80;15.10;;;;;;;13.61;100.00;98762.97;5010060;28;20040;-68
2022/11/23 09:47:38;;;;;;;25.67;17.95;;;;;;;13.64;100.00;98760.25;5010027;28;20030;-67
2022/11/23 09:50:07;;;;;;;25.20;17.65;;;;;;;13.62;100.00;98761.25;5008738;28;20046;-68
2022/11/23 09:52:36;;;;;;;25.30;15.65;;;;;;;13.63;100.00;98768.00;5008653;28;20185;-68
2022/11/23 09:55:13;;;;;;;27.65;19.77;;;;;;;13.60;100.00;98756.25;5010209;28;20528;-67
2022/11/23 09:57:42;;;;;;;25.27;17.60;;;;;;;13.37;100.00;98708.28;5010620;28;20029;-67
2022/11/23 10:00:16;;;;;;;22.40;14.50;;;;;;;13.33;100.00;98688.16;5008689;28;20049;-68
2022/11/23 10:02:42;;;;;;;21.27;16.30;;;;;;;13.33;100.00;98671.06;5010089;28;20037;-69
2022/11/23 10:05:15;;;;;;;25.73;19.50;;;;;;;13.61;100.00;98721.28;5009899;28;20544;-69
2022/11/23 10:08:21;;;;;;;29.77;19.83;;;;;;;13.68;100.00;98727.69;5012205;28;20041;-67
2022/11/23 10:11:25;;;;;;;22.05;15.52;;;;;;;13.66;100.00;98732.91;4982694;28;20060;-68
2022/11/23 10:14:27;;;;;;;23.98;15.35;;;;;;;13.67;100.00;98731.97;5010535;28;20518;-68
2022/11/23 10:16:52;;;;;;;28.83;18.73;;;;;;;13.65;100.00;98730.41;5006146;28;20046;-69
2022/11/23 10:19:40;;;;;;;28.13;19.92;;;;;;;13.44;100.00;98673.00;5013520;28;20014;-69
2022/11/23 10:22:30;;;;;;;20.58;15.13;;;;;;;13.53;100.00;98687.75;5012380;28;20041;-69
2022/11/23 10:24:55;;;;;;;23.85;18.13;;;;;;;13.67;100.00;98714.09;5013477;28;20801;-67
2022/11/23 10:27:23;;;;;;;19.83;14.48;;;;;;;13.72;100.00;98722.31;5013265;28;20141;-68
2022/11/23 10:29:51;;;;;;;18.23;14.43;;;;;;;13.45;100.00;98679.75;4662635;28;10000302;-68
2022/11/23 10:32:26;;;;;;;19.70;13.65;;;;;;;13.67;100.00;98724.31;5009890;28;20037;-69
2022/11/23 10:35:13;;;;;;;20.35;13.27;;;;;;;13.44;100.00;98671.25;5010705;28;20034;-68
2022/11/23 10:37:39;;;;;;;18.70;13.35;;;;;;;13.72;100.00;98703.59;5010035;28;20401;-68
2022/11/23 10:40:24;;;;;;;24.00;17.08;;;;;;;13.47;100.00;98685.59;5009231;28;20073;-68
2022/11/23 10:43:00;;;;;;;22.98;13.75;;;;;;;13.86;100.00;98729.91;5008521;28;20030;-68
2022/11/23 10:45:27;;;;;;;18.92;13.23;;;;;;;13.71;100.00;98735.16;5010393;28;20041;-69
2022/11/23 10:48:00;;;;;;;20.42;15.50;;;;;;;13.56;100.00;98696.06;5010041;28;20034;-67
2022/11/23 10:50:28;;;;;;;18.88;11.27;;;;;;;13.61;100.00;98693.19;5012288;28;20175;-71
2022/11/23 10:53:17;;;;;;;14.93;10.85;;;;;;;13.86;100.00;98736.78;5011399;28;20038;-69
2022/11/23 10:55:53;;;;;;;18.48;9.50;;;;;;;13.90;100.00;98735.69;5008198;28;20041;-69
2022/11/23 10:58:35;;;;;;;13.88;9.57;;;;;;;13.98;100.00;98735.22;5009840;28;20124;-69
2022/11/23 11:01:03;;;;;;;18.05;10.75;;;;;;;13.74;100.00;98689.84;5011255;28;20049;-69
2022/11/23 11:03:32;;;;;;;13.43;9.60;;;;;;;14.03;100.00;98726.34;5012289;28;20034;-68
2022/11/23 11:05:58;;;;;;;15.57;9.35;;;;;;;14.07;100.00;98726.97;5012119;28;20026;-68
2022/11/23 11:08:29;;;;;;;14.50;9.50;;;;;;;13.92;100.00;98692.97;5011815;28;20080;-68
2022/11/23 11:11:30;;;;;;;15.88;10.27;;;;;;;14.14;100.00;98726.50;5011931;28;20025;-69
2022/11/23 11:14:23;;;;;;;15.73;9.43;;;;;;;14.12;100.00;98722.41;5010057;28;20030;-68
2022/11/23 11:16:54;;;;;;;12.18;8.82;;;;;;;13.92;100.00;98688.66;5012394;28;20413;-69